Sherwood, TN (37376)

12:26 PM CST on February 09, 2016 (GMT -0600)
Sky Castle - Sewanee | | Change Station
CLOSE
Current Station
Personal Weather Station
Location: Sewanee, TN
Elevation: 1854 ft
Nearby Weather Stations
Active Advisory: Winter Weather Advisory Active Notice: Local Storm Report

Elev 1854 ft 35.15 °N, 85.88 °W | Updated 7 seconds ago

Overcast
Overcast
23.0 °F
Feels Like 18 °F
N
4.0
Wind Variable Wind from West
Gusts 13.0 mph

Today
High -- | Low -- °F
--% Chance of Precip.
Yesterday
High -- | Low -- °F
Precip. -- in
Pressure 29.87 in
Visibility 5.0 miles
Clouds Few 1100 ft
Mostly Cloudy 1700 ft
Overcast 2700 ft
Windchill 18 °F
Dew Point 21 °F
Humidity 92%
Rainfall 0.00 in
Snow Depth Not available.
6:36 AM 5:20 PM
New Moon, 2% visible
METAR KBGF 091815Z AUTO 27011KT 5SM FEW011 BKN017 OVC027 M03/M06 A2987 RMK
Pressure 29.87 in
Visibility 5.0 miles
Clouds Few 1100 ft
Mostly Cloudy 1700 ft
Overcast 2700 ft
Windchill 18 °F
Dew Point 21 °F
Humidity 92%
Rainfall 0.00 in
Snow Depth Not available.
6:36 AM 5:20 PM
New Moon, 2% visible
METAR KBGF 091815Z AUTO 27011KT 5SM FEW011 BKN017 OVC027 M03/M06 A2987 RMK

10-Day Weather Forecast

Almanac

Astronomy

Feb. 09, 2016 Rise Set
Actual Time
Civil Twilight
Nautical Twilight
Astronomical Twilight
Moon
Length of Visible Light
Length of Day
Tomorrow will be .
, % of the Moon is Illuminated

Today's Extremes

State Highs State Lows

Community

WunderPhotos

Upload Photos

1,891,655 photos uploaded!

WunderBlog® & News

Nearby

Air Quality

  Air Quality AQ Index Pollutant
Not available.

Snow Depth

Station Depth Elevation

Earthquake Activity

City Distance Mag. Time & Date
Minimum magnitude displayed is 2.5.

Coastal Water Temperatures

Place Temperature

Stations

Nearby Weather Stations

Station Location Temp. Windchill Dew Point Humidity Wind Precip. Elev Updated Type
                   

Watches & Warnings

Winter Weather Advisory
Issued: 3:22 AM CST Feb. 9, 2016 – National Weather Service

... Winter Weather Advisory remains in effect until 6 PM CST this
evening...

* accumulations... up to 2 inches in higher elevations with around an
inch elsewhere.

* Impacts... motorists should plan their travels accordingly and
be prepared to encounter some slippery spots on elevated
bridges and overpasses and secondary roads.

Precautionary/preparedness actions...

A Winter Weather Advisory for snow means that periods of snow
will cause primarily travel difficulties. Be prepared for snow
covered roads and limited visibilities... and use caution while
driving.